sensor_id;sensor_type;location;lat;lon;timestamp;pressure;altitude;pressure_sealevel;temperature;humidity
53514;BME280;39768;54.148;12.174;2023-03-04T00:03:05;101569.50;;;7.16;100.00
53514;BME280;39768;54.148;12.174;2023-03-04T00:07:07;101570.50;;;7.22;100.00
53514;BME280;39768;54.148;12.174;2023-03-04T00:11:08;101573.19;;;7.25;100.00
53514;BME280;39768;54.148;12.174;2023-03-04T00:15:10;101566.91;;;7.17;100.00
53514;BME280;39768;54.148;12.174;2023-03-04T00:19:11;101566.13;;;7.24;100.00
53514;BME280;39768;54.148;12.174;2023-03-04T00:23:13;101561.56;;;7.11;100.00
53514;BME280;39768;54.148;12.174;2023-03-04T00:27:14;101551.00;;;7.14;100.00
53514;BME280;39768;54.148;12.174;2023-03-04T00:31:16;101564.31;;;7.22;100.00
53514;BME280;39768;54.148;12.174;2023-03-04T00:35:17;101574.03;;;7.24;100.00
53514;BME280;39768;54.148;12.174;2023-03-04T00:39:19;101565.31;;;7.31;100.00
53514;BME280;39768;54.148;12.174;2023-03-04T00:43:20;101552.91;;;7.24;100.00
53514;BME280;39768;54.148;12.174;2023-03-04T00:47:22;101556.44;;;7.25;100.00
53514;BME280;39768;54.148;12.174;2023-03-04T00:51:23;101557.34;;;7.27;100.00
53514;BME280;39768;54.148;12.174;2023-03-04T00:55:25;101548.41;;;7.17;100.00
53514;BME280;39768;54.148;12.174;2023-03-04T00:59:26;101543.47;;;7.41;100.00
53514;BME280;39768;54.148;12.174;2023-03-04T01:03:28;101535.41;;;7.32;100.00
53514;BME280;39768;54.148;12.174;2023-03-04T01:07:31;101529.22;;;7.30;100.00
53514;BME280;39768;54.148;12.174;2023-03-04T01:11:34;101534.63;;;7.39;100.00
53514;BME280;39768;54.148;12.174;2023-03-04T01:15:35;101525.09;;;7.54;100.00
53514;BME280;39768;54.148;12.174;2023-03-04T01:19:39;101530.56;;;7.69;100.00
53514;BME280;39768;54.148;12.174;2023-03-04T01:23:40;101534.94;;;7.68;100.00
53514;BME280;39768;54.148;12.174;2023-03-04T01:27:42;101531.47;;;7.71;100.00
53514;BME280;39768;54.148;12.174;2023-03-04T01:31:43;101528.91;;;7.80;100.00
53514;BME280;39768;54.148;12.174;2023-03-04T01:35:46;101520.09;;;7.81;100.00
53514;BME280;39768;54.148;12.174;2023-03-04T01:39:47;101531.84;;;8.10;100.00
53514;BME280;39768;54.148;12.174;2023-03-04T01:43:49;101515.00;;;8.02;100.00
53514;BME280;39768;54.148;12.174;2023-03-04T01:47:51;101516.75;;;7.99;100.00
53514;BME280;39768;54.148;12.174;2023-03-04T01:51:53;101522.09;;;8.08;100.00
53514;BME280;39768;54.148;12.174;2023-03-04T01:55:58;101503.59;;;8.08;100.00
53514;BME280;39768;54.148;12.174;2023-03-04T02:00:31;101500.06;;;8.06;100.00
53514;BME280;39768;54.148;12.174;2023-03-04T02:04:33;101497.31;;;7.94;100.00
53514;BME280;39768;54.148;12.174;2023-03-04T02:08:35;101500.97;;;8.09;100.00
53514;BME280;39768;54.148;12.174;2023-03-04T02:12:37;101503.38;;;7.87;100.00
53514;BME280;39768;54.148;12.174;2023-03-04T02:16:39;101497.09;;;7.71;100.00
53514;BME280;39768;54.148;12.174;2023-03-04T02:20:51;101497.16;;;7.78;100.00
53514;BME280;39768;54.148;12.174;2023-03-04T02:25:02;101493.75;;;7.92;100.00
53514;BME280;39768;54.148;12.174;2023-03-04T02:29:08;101494.66;;;7.94;100.00
53514;BME280;39768;54.148;12.174;2023-03-04T02:33:16;101480.53;;;7.92;100.00
53514;BME280;39768;54.148;12.174;2023-03-04T02:37:19;101485.91;;;7.98;100.00
53514;BME280;39768;54.148;12.174;2023-03-04T02:41:24;101481.63;;;8.17;100.00
53514;BME280;39768;54.148;12.174;2023-03-04T02:49:40;101472.81;;;8.18;100.00
53514;BME280;39768;54.148;12.174;2023-03-04T02:53:42;101458.56;;;7.97;100.00
53514;BME280;39768;54.148;12.174;2023-03-04T02:57:45;101457.47;;;7.74;100.00
53514;BME280;39768;54.148;12.174;2023-03-04T03:01:46;101448.81;;;7.92;100.00
53514;BME280;39768;54.148;12.174;2023-03-04T03:05:48;101451.44;;;7.90;100.00
53514;BME280;39768;54.148;12.174;2023-03-04T03:09:51;101442.56;;;7.82;100.00
53514;BME280;39768;54.148;12.174;2023-03-04T03:13:52;101436.56;;;8.03;100.00
53514;BME280;39768;54.148;12.174;2023-03-04T03:17:54;101433.88;;;7.95;100.00
53514;BME280;39768;54.148;12.174;2023-03-04T03:21:56;101428.56;;;7.92;100.00
53514;BME280;39768;54.148;12.174;2023-03-04T03:25:57;101428.63;;;8.01;100.00
53514;BME280;39768;54.148;12.174;2023-03-04T03:30:01;101421.59;;;8.00;100.00
53514;BME280;39768;54.148;12.174;2023-03-04T03:34:03;101427.81;;;8.10;100.00
53514;BME280;39768;54.148;12.174;2023-03-04T03:38:04;101415.34;;;7.94;100.00
53514;BME280;39768;54.148;12.174;2023-03-04T03:42:06;101422.34;;;7.89;100.00
53514;BME280;39768;54.148;12.174;2023-03-04T03:46:07;101416.34;;;8.08;100.00
53514;BME280;39768;54.148;12.174;2023-03-04T03:50:09;101415.38;;;8.01;100.00
53514;BME280;39768;54.148;12.174;2023-03-04T03:54:11;101411.94;;;8.08;100.00
53514;BME280;39768;54.148;12.174;2023-03-04T03:58:13;101402.19;;;8.00;100.00
53514;BME280;39768;54.148;12.174;2023-03-04T04:02:14;101403.19;;;8.20;100.00
53514;BME280;39768;54.148;12.174;2023-03-04T04:06:16;101394.28;;;8.07;100.00
53514;BME280;39768;54.148;12.174;2023-03-04T04:10:17;101397.97;;;8.26;100.00
53514;BME280;39768;54.148;12.174;2023-03-04T04:14:19;101388.28;;;8.30;100.00
53514;BME280;39768;54.148;12.174;2023-03-04T04:18:20;101390.91;;;8.27;100.00
53514;BME280;39768;54.148;12.174;2023-03-04T04:22:22;101392.69;;;8.29;100.00
53514;BME280;39768;54.148;12.174;2023-03-04T04:26:23;101387.25;;;8.09;100.00
53514;BME280;39768;54.148;12.174;2023-03-04T04:30:25;101385.53;;;8.18;100.00
53514;BME280;39768;54.148;12.174;2023-03-04T04:34:26;101379.25;;;7.97;100.00
53514;BME280;39768;54.148;12.174;2023-03-04T04:38:28;101383.56;;;7.85;100.00
53514;BME280;39768;54.148;12.174;2023-03-04T04:42:29;101387.91;;;7.76;100.00
53514;BME280;39768;54.148;12.174;2023-03-04T04:46:31;101392.13;;;7.55;100.00
53514;BME280;39768;54.148;12.174;2023-03-04T04:50:32;101386.13;;;7.77;100.00
53514;BME280;39768;54.148;12.174;2023-03-04T04:54:34;101391.50;;;7.86;100.00
53514;BME280;39768;54.148;12.174;2023-03-04T04:58:36;101394.88;;;7.67;100.00
53514;BME280;39768;54.148;12.174;2023-03-04T05:02:37;101388.88;;;7.91;100.00
53514;BME280;39768;54.148;12.174;2023-03-04T05:06:39;101390.50;;;7.69;100.00
53514;BME280;39768;54.148;12.174;2023-03-04T05:10:41;101386.84;;;7.58;100.00
53514;BME280;39768;54.148;12.174;2023-03-04T05:14:43;101386.50;;;7.20;100.00
53514;BME280;39768;54.148;12.174;2023-03-04T05:18:44;101385.56;;;7.16;100.00
53514;BME280;39768;54.148;12.174;2023-03-04T05:22:46;101390.72;;;7.04;100.00
53514;BME280;39768;54.148;12.174;2023-03-04T05:26:47;101393.56;;;7.22;100.00
53514;BME280;39768;54.148;12.174;2023-03-04T05:30:49;101400.44;;;7.06;100.00
53514;BME280;39768;54.148;12.174;2023-03-04T05:34:50;101403.22;;;7.20;100.00
53514;BME280;39768;54.148;12.174;2023-03-04T05:38:52;101412.13;;;7.31;100.00
53514;BME280;39768;54.148;12.174;2023-03-04T05:42:53;101409.34;;;7.18;100.00
53514;BME280;39768;54.148;12.174;2023-03-04T05:46:55;101405.03;;;7.27;100.00
53514;BME280;39768;54.148;12.174;2023-03-04T05:50:59;101416.56;;;7.32;100.00
53514;BME280;39768;54.148;12.174;2023-03-04T05:55:01;101412.25;;;7.40;100.00
53514;BME280;39768;54.148;12.174;2023-03-04T05:59:02;101405.81;;;7.17;100.00
53514;BME280;39768;54.148;12.174;2023-03-04T06:03:04;101409.38;;;7.19;100.00
53514;BME280;39768;54.148;12.174;2023-03-04T06:07:05;101412.25;;;7.40;100.00
53514;BME280;39768;54.148;12.174;2023-03-04T06:11:07;101417.38;;;7.28;100.00
53514;BME280;39768;54.148;12.174;2023-03-04T06:15:09;101416.47;;;7.23;100.00
53514;BME280;39768;54.148;12.174;2023-03-04T06:19:10;101409.44;;;7.25;100.00
53514;BME280;39768;54.148;12.174;2023-03-04T06:23:12;101397.88;;;7.14;100.00
53514;BME280;39768;54.148;12.174;2023-03-04T06:27:13;101411.09;;;7.17;100.00
53514;BME280;39768;54.148;12.174;2023-03-04T06:31:16;101411.91;;;7.08;100.00
53514;BME280;39768;54.148;12.174;2023-03-04T06:35:18;101411.94;;;7.10;100.00
53514;BME280;39768;54.148;12.174;2023-03-04T06:39:20;101420.84;;;7.21;100.00
53514;BME280;39768;54.148;12.174;2023-03-04T06:43:21;101427.06;;;7.28;100.00
53514;BME280;39768;54.148;12.174;2023-03-04T06:47:23;101426.16;;;7.24;100.00
53514;BME280;39768;54.148;12.174;2023-03-04T06:51:24;101437.78;;;7.41;100.00
53514;BME280;39768;54.148;12.174;2023-03-04T06:55:26;101440.59;;;7.57;100.00
53514;BME280;39768;54.148;12.174;2023-03-04T06:59:27;101451.16;;;7.57;100.00
53514;BME280;39768;54.148;12.174;2023-03-04T07:03:29;101455.53;;;7.55;100.00
53514;BME280;39768;54.148;12.174;2023-03-04T07:07:30;101459.94;;;7.57;100.00
53514;BME280;39768;54.148;12.174;2023-03-04T07:11:31;101462.56;;;7.53;100.00
53514;BME280;39768;54.148;12.174;2023-03-04T07:15:33;101451.16;;;7.60;100.00
53514;BME280;39768;54.148;12.174;2023-03-04T07:19:36;101451.28;;;7.69;100.00
53514;BME280;39768;54.148;12.174;2023-03-04T07:23:38;101460.94;;;7.67;100.00
53514;BME280;39768;54.148;12.174;2023-03-04T07:27:39;101465.50;;;7.83;100.00
53514;BME280;39768;54.148;12.174;2023-03-04T07:31:41;101469.91;;;7.83;100.00
53514;BME280;39768;54.148;12.174;2023-03-04T07:35:42;101469.13;;;7.94;100.00
53514;BME280;39768;54.148;12.174;2023-03-04T07:39:44;101461.19;;;7.94;100.00
53514;BME280;39768;54.148;12.174;2023-03-04T07:43:46;101461.22;;;7.99;100.00
53514;BME280;39768;54.148;12.174;2023-03-04T07:47:47;101451.50;;;7.96;100.00
53514;BME280;39768;54.148;12.174;2023-03-04T07:51:49;101448.75;;;7.84;100.00
53514;BME280;39768;54.148;12.174;2023-03-04T07:55:50;101466.59;;;8.11;100.00
53514;BME280;39768;54.148;12.174;2023-03-04T07:59:52;101465.84;;;8.26;100.00
53514;BME280;39768;54.148;12.174;2023-03-04T08:03:53;101464.88;;;8.13;100.00
53514;BME280;39768;54.148;12.174;2023-03-04T08:07:55;101471.81;;;8.02;100.00
53514;BME280;39768;54.148;12.174;2023-03-04T08:11:58;101477.25;;;8.16;100.00
53514;BME280;39768;54.148;12.174;2023-03-04T08:16:00;101477.09;;;8.03;100.00
53514;BME280;39768;54.148;12.174;2023-03-04T08:20:02;101475.53;;;8.24;100.00
53514;BME280;39768;54.148;12.174;2023-03-04T08:24:04;101477.16;;;8.09;100.00
53514;BME280;39768;54.148;12.174;2023-03-04T08:28:09;101475.41;;;8.08;100.00
53514;BME280;39768;54.148;12.174;2023-03-04T08:32:10;101480.47;;;7.87;100.00
53514;BME280;39768;54.148;12.174;2023-03-04T08:36:13;101492.00;;;7.92;100.00
53514;BME280;39768;54.148;12.174;2023-03-04T08:40:15;101482.09;;;7.68;100.00
53514;BME280;39768;54.148;12.174;2023-03-04T08:44:16;101489.22;;;7.78;100.00
53514;BME280;39768;54.148;12.174;2023-03-04T08:48:18;101482.97;;;7.67;100.00
53514;BME280;39768;54.148;12.174;2023-03-04T08:52:20;101480.56;;;7.93;100.00
53514;BME280;39768;54.148;12.174;2023-03-04T08:56:21;101480.56;;;7.95;100.00
53514;BME280;39768;54.148;12.174;2023-03-04T09:00:23;101473.47;;;7.91;100.00
53514;BME280;39768;54.148;12.174;2023-03-04T09:04:24;101484.16;;;8.04;100.00
53514;BME280;39768;54.148;12.174;2023-03-04T09:08:26;101488.06;;;8.43;100.00
53514;BME280;39768;54.148;12.174;2023-03-04T09:12:27;101487.03;;;8.29;100.00
53514;BME280;39768;54.148;12.174;2023-03-04T09:16:29;101493.25;;;8.34;100.00
53514;BME280;39768;54.148;12.174;2023-03-04T10:07:21;101518.25;;;7.71;100.00
53514;BME280;39768;54.148;12.174;2023-03-04T10:11:27;101518.94;;;7.58;100.00
53514;BME280;39768;54.148;12.174;2023-03-04T10:15:38;101518.63;;;7.29;100.00
53514;BME280;39768;54.148;12.174;2023-03-04T10:23:52;101522.34;;;7.44;100.00
53514;BME280;39768;54.148;12.174;2023-03-04T10:31:56;101524.66;;;7.96;100.00
53514;BME280;39768;54.148;12.174;2023-03-04T10:36:28;101528.97;;;7.89;100.00
53514;BME280;39768;54.148;12.174;2023-03-04T10:40:38;101536.16;;;7.99;100.00
53514;BME280;39768;54.148;12.174;2023-03-04T10:44:42;101538.81;;;8.01;100.00
53514;BME280;39768;54.148;12.174;2023-03-04T10:48:44;101532.97;;;8.38;100.00
53514;BME280;39768;54.148;12.174;2023-03-04T10:52:47;101536.50;;;8.39;100.00
53514;BME280;39768;54.148;12.174;2023-03-04T10:56:59;101538.28;;;8.40;100.00
53514;BME280;39768;54.148;12.174;2023-03-04T11:01:05;101540.78;;;8.25;100.00
53514;BME280;39768;54.148;12.174;2023-03-04T11:09:27;101550.69;;;8.44;100.00
53514;BME280;39768;54.148;12.174;2023-03-04T11:13:30;101546.03;;;8.22;100.00
53514;BME280;39768;54.148;12.174;2023-03-04T11:17:44;101547.63;;;8.00;100.00
53514;BME280;39768;54.148;12.174;2023-03-04T11:21:48;101550.41;;;8.20;100.00
53514;BME280;39768;54.148;12.174;2023-03-04T11:25:55;101548.94;;;8.49;100.00
53514;BME280;39768;54.148;12.174;2023-03-04T11:34:41;101561.56;;;8.91;100.00
53514;BME280;39768;54.148;12.174;2023-03-04T11:38:48;101565.81;;;8.66;100.00
53514;BME280;39768;54.148;12.174;2023-03-04T11:42:54;101564.91;;;8.58;100.00
53514;BME280;39768;54.148;12.174;2023-03-04T11:47:21;101553.44;;;8.59;100.00
53514;BME280;39768;54.148;12.174;2023-03-04T12:01:12;101560.56;;;8.69;100.00
53514;BME280;39768;54.148;12.174;2023-03-04T12:05:23;101561.38;;;8.62;100.00
53514;BME280;39768;54.148;12.174;2023-03-04T12:09:53;101562.72;;;8.18;100.00
53514;BME280;39768;54.148;12.174;2023-03-04T12:14:07;101566.00;;;7.89;95.41
53514;BME280;39768;54.148;12.174;2023-03-04T12:18:51;101551.78;;;8.76;93.39
53514;BME280;39768;54.148;12.174;2023-03-04T12:31:28;101556.09;;;8.64;86.03
53514;BME280;39768;54.148;12.174;2023-03-04T12:40:27;101556.84;;;8.44;74.75
53514;BME280;39768;54.148;12.174;2023-03-04T12:44:43;101548.88;;;8.40;70.33
53514;BME280;39768;54.148;12.174;2023-03-04T12:49:13;101552.28;;;8.30;65.92
53514;BME280;39768;54.148;12.174;2023-03-04T12:53:26;101564.84;;;8.52;60.82
53514;BME280;39768;54.148;12.174;2023-03-04T12:57:30;101567.13;;;8.17;49.05
53514;BME280;39768;54.148;12.174;2023-03-04T13:06:22;101568.47;;;8.66;45.48
53514;BME280;39768;54.148;12.174;2023-03-04T13:10:29;101571.28;;;8.86;45.23
53514;BME280;39768;54.148;12.174;2023-03-04T13:14:31;101562.56;;;9.04;45.31
53514;BME280;39768;54.148;12.174;2023-03-04T13:18:35;101557.47;;;9.54;46.03
53514;BME280;39768;54.148;12.174;2023-03-04T13:26:38;101552.09;;;9.36;47.16
53514;BME280;39768;54.148;12.174;2023-03-04T13:34:59;101559.03;;;9.11;45.23
53514;BME280;39768;54.148;12.174;2023-03-04T13:39:21;101556.34;;;8.99;44.37
53514;BME280;39768;54.148;12.174;2023-03-04T13:43:27;101556.06;;;8.61;45.23
53514;BME280;39768;54.148;12.174;2023-03-04T13:47:38;101554.91;;;8.28;46.17
53514;BME280;39768;54.148;12.174;2023-03-04T13:51:41;101558.06;;;7.86;50.95
53514;BME280;39768;54.148;12.174;2023-03-04T13:56:03;101564.19;;;7.84;49.52
53514;BME280;39768;54.148;12.174;2023-03-04T14:00:10;101564.50;;;8.17;48.10
53514;BME280;39768;54.148;12.174;2023-03-04T14:04:18;101562.00;;;8.31;45.79
53514;BME280;39768;54.148;12.174;2023-03-04T14:08:24;101559.25;;;8.20;45.14
53514;BME280;39768;54.148;12.174;2023-03-04T14:12:30;101566.38;;;8.29;45.04
53514;BME280;39768;54.148;12.174;2023-03-04T14:16:37;101559.19;;;8.17;46.47
53514;BME280;39768;54.148;12.174;2023-03-04T14:20:47;101567.53;;;8.58;45.49
53514;BME280;39768;54.148;12.174;2023-03-04T14:25:14;101561.53;;;8.82;45.73
53514;BME280;39768;54.148;12.174;2023-03-04T14:29:25;101559.53;;;8.51;42.46
53514;BME280;39768;54.148;12.174;2023-03-04T14:33:28;101566.47;;;8.36;43.77
53514;BME280;39768;54.148;12.174;2023-03-04T14:37:41;101560.31;;;8.37;43.93
53514;BME280;39768;54.148;12.174;2023-03-04T14:41:46;101564.53;;;8.22;45.10
53514;BME280;39768;54.148;12.174;2023-03-04T14:45:50;101561.72;;;8.03;45.48
53514;BME280;39768;54.148;12.174;2023-03-04T14:49:53;101561.69;;;7.97;43.59
53514;BME280;39768;54.148;12.174;2023-03-04T14:53:55;101577.94;;;7.54;45.25
53514;BME280;39768;54.148;12.174;2023-03-04T14:58:29;101567.53;;;7.69;44.40
53514;BME280;39768;54.148;12.174;2023-03-04T15:02:41;101573.78;;;7.77;44.12
53514;BME280;39768;54.148;12.174;2023-03-04T15:06:51;101565.81;;;7.71;45.39
53514;BME280;39768;54.148;12.174;2023-03-04T15:11:01;101571.81;;;7.56;46.04
53514;BME280;39768;54.148;12.174;2023-03-04T15:15:35;101569.16;;;7.58;46.45
53514;BME280;39768;54.148;12.174;2023-03-04T15:19:37;101560.63;;;7.82;46.10
53514;BME280;39768;54.148;12.174;2023-03-04T15:23:38;101572.00;;;7.71;47.18
53514;BME280;39768;54.148;12.174;2023-03-04T15:27:41;101560.34;;;7.56;46.72
53514;BME280;39768;54.148;12.174;2023-03-04T15:31:44;101570.56;;;7.28;45.17
53514;BME280;39768;54.148;12.174;2023-03-04T15:35:52;101559.03;;;7.22;46.00
53514;BME280;39768;54.148;12.174;2023-03-04T15:39:55;101570.44;;;7.19;45.15
53514;BME280;39768;54.148;12.174;2023-03-04T15:43:58;101568.84;;;7.32;45.44
53514;BME280;39768;54.148;12.174;2023-03-04T15:47:59;101571.50;;;7.32;44.25
53514;BME280;39768;54.148;12.174;2023-03-04T15:52:05;101571.66;;;7.46;45.11
53514;BME280;39768;54.148;12.174;2023-03-04T15:56:11;101576.31;;;6.98;45.85
53514;BME280;39768;54.148;12.174;2023-03-04T16:00:15;101569.91;;;6.80;46.77
53514;BME280;39768;54.148;12.174;2023-03-04T16:04:17;101572.09;;;6.51;46.83
53514;BME280;39768;54.148;12.174;2023-03-04T16:08:20;101580.81;;;6.47;49.43
53514;BME280;39768;54.148;12.174;2023-03-04T16:12:24;101576.44;;;6.49;48.91
53514;BME280;39768;54.148;12.174;2023-03-04T16:16:27;101576.03;;;6.23;51.42
53514;BME280;39768;54.148;12.174;2023-03-04T16:20:29;101578.88;;;6.36;52.62
53514;BME280;39768;54.148;12.174;2023-03-04T16:24:33;101574.22;;;6.20;51.41
53514;BME280;39768;54.148;12.174;2023-03-04T16:28:34;101565.03;;;5.98;53.64
53514;BME280;39768;54.148;12.174;2023-03-04T16:32:36;101580.94;;;6.03;57.44
53514;BME280;39768;54.148;12.174;2023-03-04T16:36:37;101574.00;;;6.10;58.80
53514;BME280;39768;54.148;12.174;2023-03-04T16:40:39;101573.53;;;5.85;60.71
53514;BME280;39768;54.148;12.174;2023-03-04T16:44:40;101576.31;;;5.90;64.91
53514;BME280;39768;54.148;12.174;2023-03-04T16:48:42;101577.66;;;5.71;71.64
53514;BME280;39768;54.148;12.174;2023-03-04T16:52:45;101580.28;;;5.71;76.04
53514;BME280;39768;54.148;12.174;2023-03-04T16:56:47;101578.69;;;5.79;76.81
53514;BME280;39768;54.148;12.174;2023-03-04T17:00:48;101570.22;;;5.95;75.03
53514;BME280;39768;54.148;12.174;2023-03-04T17:04:50;101572.00;;;5.96;76.01
53514;BME280;39768;54.148;12.174;2023-03-04T17:08:52;101576.41;;;5.96;74.99
53514;BME280;39768;54.148;12.174;2023-03-04T17:12:55;101581.84;;;6.05;75.53
53514;BME280;39768;54.148;12.174;2023-03-04T17:17:01;101574.88;;;6.07;76.05
53514;BME280;39768;54.148;12.174;2023-03-04T17:21:05;101574.06;;;6.13;77.24
53514;BME280;39768;54.148;12.174;2023-03-04T17:25:08;101574.00;;;6.08;75.33
53514;BME280;39768;54.148;12.174;2023-03-04T17:29:09;101554.00;;;5.74;77.69
53514;BME280;39768;54.148;12.174;2023-03-04T17:33:11;101556.75;;;6.28;74.78
53514;BME280;39768;54.148;12.174;2023-03-04T17:37:13;101556.69;;;6.24;74.24
53514;BME280;39768;54.148;12.174;2023-03-04T17:41:14;101544.88;;;6.00;73.10
53514;BME280;39768;54.148;12.174;2023-03-04T17:45:18;101542.19;;;5.99;66.96
53514;BME280;39768;54.148;12.174;2023-03-04T17:49:19;101537.91;;;6.04;60.91
53514;BME280;39768;54.148;12.174;2023-03-04T17:53:21;101536.38;;;6.18;56.97
53514;BME280;39768;54.148;12.174;2023-03-04T17:57:23;101527.22;;;5.96;52.45
53514;BME280;39768;54.148;12.174;2023-03-04T18:01:25;101528.34;;;6.11;51.09
53514;BME280;39768;54.148;12.174;2023-03-04T18:05:26;101528.72;;;6.33;50.87
53514;BME280;39768;54.148;12.174;2023-03-04T18:09:28;101534.97;;;6.40;53.04
53514;BME280;39768;54.148;12.174;2023-03-04T18:13:29;101522.59;;;6.34;50.98
53514;BME280;39768;54.148;12.174;2023-03-04T18:17:31;101517.16;;;6.25;52.31
53514;BME280;39768;54.148;12.174;2023-03-04T18:21:33;101518.03;;;6.26;54.11
53514;BME280;39768;54.148;12.174;2023-03-04T18:25:34;101516.16;;;6.17;56.86
53514;BME280;39768;54.148;12.174;2023-03-04T18:29:36;101516.00;;;6.07;57.21
53514;BME280;39768;54.148;12.174;2023-03-04T18:33:38;101505.34;;;6.02;57.95
53514;BME280;39768;54.148;12.174;2023-03-04T18:37:41;101498.94;;;5.88;56.28
53514;BME280;39768;54.148;12.174;2023-03-04T18:41:42;101492.94;;;5.93;58.80
53514;BME280;39768;54.148;12.174;2023-03-04T18:45:44;101500.00;;;5.97;59.54
53514;BME280;39768;54.148;12.174;2023-03-04T18:49:48;101485.75;;;5.88;60.64
53514;BME280;39768;54.148;12.174;2023-03-04T18:53:50;101492.63;;;5.78;62.79
53514;BME280;39768;54.148;12.174;2023-03-04T18:57:53;101492.69;;;5.83;62.96
53514;BME280;39768;54.148;12.174;2023-03-04T19:01:57;101496.13;;;5.77;64.89
53514;BME280;39768;54.148;12.174;2023-03-04T19:06:02;101487.09;;;5.63;67.92
53514;BME280;39768;54.148;12.174;2023-03-04T19:10:05;101484.72;;;5.80;65.98
53514;BME280;39768;54.148;12.174;2023-03-04T19:14:06;101488.31;;;5.37;66.88
53514;BME280;39768;54.148;12.174;2023-03-04T19:18:08;101485.50;;;5.74;67.41
53514;BME280;39768;54.148;12.174;2023-03-04T19:22:10;101492.78;;;5.87;65.63
53514;BME280;39768;54.148;12.174;2023-03-04T19:26:11;101476.56;;;5.66;61.75
53514;BME280;39768;54.148;12.174;2023-03-04T19:30:14;101477.66;;;5.76;60.81
53514;BME280;39768;54.148;12.174;2023-03-04T19:34:15;101462.19;;;5.46;60.23
53514;BME280;39768;54.148;12.174;2023-03-04T19:38:17;101469.09;;;5.41;60.34
53514;BME280;39768;54.148;12.174;2023-03-04T19:42:18;101467.00;;;5.23;63.88
53514;BME280;39768;54.148;12.174;2023-03-04T19:46:20;101462.41;;;5.13;64.09
53514;BME280;39768;54.148;12.174;2023-03-04T19:50:21;101455.53;;;5.19;62.15
53514;BME280;39768;54.148;12.174;2023-03-04T19:54:23;101453.34;;;5.44;65.63
53514;BME280;39768;54.148;12.174;2023-03-04T19:58:25;101448.16;;;5.47;64.61
53514;BME280;39768;54.148;12.174;2023-03-04T20:02:26;101439.19;;;5.37;65.00
53514;BME280;39768;54.148;12.174;2023-03-04T20:06:28;101453.97;;;5.29;67.42
53514;BME280;39768;54.148;12.174;2023-03-04T20:10:32;101444.06;;;5.16;67.73
53514;BME280;39768;54.148;12.174;2023-03-04T20:14:36;101438.16;;;5.29;65.27
53514;BME280;39768;54.148;12.174;2023-03-04T20:18:40;101445.38;;;5.39;66.46
53514;BME280;39768;54.148;12.174;2023-03-04T20:22:42;101439.94;;;5.30;67.48
53514;BME280;39768;54.148;12.174;2023-03-04T20:26:44;101453.97;;;5.29;67.62
53514;BME280;39768;54.148;12.174;2023-03-04T20:30:46;101459.19;;;5.27;66.27
53514;BME280;39768;54.148;12.174;2023-03-04T20:34:47;101460.78;;;5.18;64.97
53514;BME280;39768;54.148;12.174;2023-03-04T20:38:55;101458.34;;;5.28;65.91
53514;BME280;39768;54.148;12.174;2023-03-04T20:43:04;101447.50;;;5.13;68.62
53514;BME280;39768;54.148;12.174;2023-03-04T20:47:07;101437.28;;;5.28;71.93
53514;BME280;39768;54.148;12.174;2023-03-04T20:51:08;101434.59;;;5.27;73.98
53514;BME280;39768;54.148;12.174;2023-03-04T20:55:10;101443.81;;;5.49;73.52
53514;BME280;39768;54.148;12.174;2023-03-04T20:59:12;101439.38;;;5.46;73.45
53514;BME280;39768;54.148;12.174;2023-03-04T21:03:13;101435.56;;;5.30;73.66
53514;BME280;39768;54.148;12.174;2023-03-04T21:07:15;101427.66;;;5.30;74.02
53514;BME280;39768;54.148;12.174;2023-03-04T21:11:16;101420.88;;;5.43;74.09
53514;BME280;39768;54.148;12.174;2023-03-04T21:15:18;101424.13;;;5.28;73.58
53514;BME280;39768;54.148;12.174;2023-03-04T21:19:25;101413.78;;;5.39;73.18
53514;BME280;39768;54.148;12.174;2023-03-04T21:23:27;101412.81;;;5.36;73.03
53514;BME280;39768;54.148;12.174;2023-03-04T21:27:29;101404.25;;;5.46;73.45
53514;BME280;39768;54.148;12.174;2023-03-04T21:31:33;101397.75;;;5.27;75.70
53514;BME280;39768;54.148;12.174;2023-03-04T21:35:37;101398.06;;;4.97;77.87
53514;BME280;39768;54.148;12.174;2023-03-04T21:39:38;101384.34;;;5.13;78.23
53514;BME280;39768;54.148;12.174;2023-03-04T21:43:40;101381.06;;;5.26;77.61
53514;BME280;39768;54.148;12.174;2023-03-04T21:47:42;101373.06;;;5.19;77.61
53514;BME280;39768;54.148;12.174;2023-03-04T21:51:43;101366.06;;;5.22;77.58
53514;BME280;39768;54.148;12.174;2023-03-04T21:55:45;101352.88;;;5.21;76.90
53514;BME280;39768;54.148;12.174;2023-03-04T21:59:47;101342.13;;;5.07;77.18
53514;BME280;39768;54.148;12.174;2023-03-04T22:03:49;101344.75;;;5.07;76.68
53514;BME280;39768;54.148;12.174;2023-03-04T22:07:51;101334.09;;;5.00;77.11
53514;BME280;39768;54.148;12.174;2023-03-04T22:11:52;101335.34;;;5.21;78.04
53514;BME280;39768;54.148;12.174;2023-03-04T22:15:56;101318.41;;;5.06;77.92
53514;BME280;39768;54.148;12.174;2023-03-04T22:19:58;101316.78;;;5.12;79.64
53514;BME280;39768;54.148;12.174;2023-03-04T22:23:59;101304.22;;;4.96;82.55
53514;BME280;39768;54.148;12.174;2023-03-04T22:28:01;101301.91;;;5.14;83.37
53514;BME280;39768;54.148;12.174;2023-03-04T22:32:03;101298.03;;;4.94;85.69
53514;BME280;39768;54.148;12.174;2023-03-04T22:36:05;101292.56;;;5.35;84.86
53514;BME280;39768;54.148;12.174;2023-03-04T22:40:08;101287.41;;;5.39;86.69
53514;BME280;39768;54.148;12.174;2023-03-04T22:44:11;101288.41;;;5.46;88.30
53514;BME280;39768;54.148;12.174;2023-03-04T22:48:14;101284.72;;;5.38;90.66
53514;BME280;39768;54.148;12.174;2023-03-04T22:52:16;101282.28;;;5.48;90.40